Time;durP1;ratioP1;P1;durP2;ratioP2;P2;SDS_P1;SDS_P2;PMS_P1;PMS_P2;Temp;Humidity;BMP_temperature;BMP_pressure;BME280_temperature;BME280_humidity;BME280_pressure;Samples;Min_cycle;Max_cycle;Signal;HPM_P1;HPM_P2
2022/02/02 00:04:52;;;;;;;2.97;2.67;;;3.30;99.90;;;;;;4994605;28;20430;-61
2022/02/02 00:09:51;;;;;;;2.97;2.67;;;3.50;99.90;;;;;;5021975;28;20569;-60
2022/02/02 00:14:53;;;;;;;3.87;2.93;;;3.70;99.90;;;;;;5023045;28;20418;-61
2022/02/02 00:20:17;;;;;;;2.17;2.00;;;3.80;99.90;;;;;;5023693;28;20501;-61
2022/02/02 00:22:45;;;;;;;2.80;2.50;;;3.80;99.90;;;;;;5022708;28;20438;-60
2022/02/02 00:27:38;;;;;;;2.10;2.00;;;3.90;99.90;;;;;;5021718;28;20457;-61
2022/02/02 00:30:05;;;;;;;1.87;1.77;;;3.90;99.90;;;;;;5038841;28;20181;-61
2022/02/02 00:35:06;;;;;;;2.73;2.30;;;4.00;99.90;;;;;;5020826;28;20513;-60
2022/02/02 00:37:32;;;;;;;5.37;2.03;;;4.00;99.90;;;;;;5020424;28;20460;-60
2022/02/02 00:39:58;;;;;;;2.23;1.93;;;4.10;99.90;;;;;;5020676;28;20463;-60
2022/02/02 00:42:29;;;;;;;6.10;1.90;;;4.10;99.90;;;;;;5022907;28;20184;-60
2022/02/02 00:44:56;;;;;;;5.40;2.00;;;4.10;99.90;;;;;;5022185;28;20207;-61
2022/02/02 00:47:24;;;;;;;4.20;2.17;;;4.10;99.90;;;;;;5021184;28;20459;-61
2022/02/02 00:49:52;;;;;;;4.83;2.53;;;4.10;99.90;;;;;;5021683;28;20462;-61
2022/02/02 00:52:19;;;;;;;3.17;2.23;;;4.10;99.90;;;;;;5022351;28;20425;-59
2022/02/02 00:54:46;;;;;;;2.43;2.23;;;4.20;99.90;;;;;;5021194;28;20529;-60
2022/02/02 00:57:13;;;;;;;7.50;2.47;;;4.20;99.90;;;;;;5022496;28;20482;-61
2022/02/02 00:59:39;;;;;;;2.50;1.93;;;4.30;99.90;;;;;;5021933;28;20430;-61
2022/02/02 01:02:04;;;;;;;4.40;2.27;;;4.30;99.90;;;;;;5023613;28;20666;-60
2022/02/02 01:04:30;;;;;;;4.07;2.37;;;4.20;99.90;;;;;;5021016;28;20810;-60
2022/02/02 01:21:01;;;;;;;4.50;3.07;;;4.20;99.90;;;;;;5023946;28;21024;-61
2022/02/02 01:28:41;;;;;;;2.40;2.10;;;4.20;99.90;;;;;;5021473;28;20683;-61
2022/02/02 01:31:08;;;;;;;4.20;2.30;;;4.20;99.90;;;;;;5015065;28;20411;-60
2022/02/02 01:33:34;;;;;;;2.80;2.30;;;4.20;99.90;;;;;;5016837;28;20822;-60
2022/02/02 01:36:01;;;;;;;3.50;2.20;;;4.20;99.90;;;;;;5018303;28;21300;-59
2022/02/02 01:38:30;;;;;;;3.37;2.40;;;4.30;99.90;;;;;;5019353;28;20477;-60
2022/02/02 01:41:02;;;;;;;5.60;2.20;;;4.30;99.90;;;;;;5018539;28;20838;-61
2022/02/02 01:43:32;;;;;;;3.00;2.60;;;4.30;99.90;;;;;;5018149;28;20493;-60
2022/02/02 01:46:06;;;;;;;3.43;2.43;;;4.30;99.90;;;;;;5018436;28;20442;-60
2022/02/02 01:48:48;;;;;;;3.67;2.43;;;4.40;99.90;;;;;;5018441;28;20427;-60
2022/02/02 01:53:56;;;;;;;2.63;2.43;;;4.30;99.90;;;;;;5023950;28;20452;-60
2022/02/02 01:56:23;;;;;;;4.00;2.63;;;4.20;99.90;;;;;;5019118;28;20950;-60
2022/02/02 01:59:03;;;;;;;13.50;3.37;;;4.20;99.90;;;;;;5021587;28;20998;-61
2022/02/02 02:01:30;;;;;;;3.57;3.13;;;4.20;99.90;;;;;;5018804;28;20454;-60
2022/02/02 02:03:57;;;;;;;6.30;3.63;;;4.30;99.90;;;;;;5022651;28;20433;-61
2022/02/02 02:06:22;;;;;;;6.67;3.50;;;4.30;99.90;;;;;;5018356;28;20426;-60
2022/02/02 02:08:48;;;;;;;8.53;4.03;;;4.30;99.90;;;;;;5018201;28;20438;-61
2022/02/02 02:11:17;;;;;;;5.23;3.73;;;4.30;99.90;;;;;;5022372;28;20172;-60
2022/02/02 02:16:10;;;;;;;7.10;3.70;;;4.30;99.90;;;;;;5019113;28;20519;-60
2022/02/02 02:18:36;;;;;;;4.23;3.50;;;4.30;99.90;;;;;;5017411;28;20430;-61
2022/02/02 02:21:09;;;;;;;5.63;3.20;;;4.30;99.90;;;;;;5019798;28;20466;-61
2022/02/02 02:23:35;;;;;;;7.23;4.40;;;4.40;99.90;;;;;;5018369;28;20216;-60
2022/02/02 02:26:00;;;;;;;4.93;3.30;;;4.40;99.90;;;;;;5020777;28;20814;-60
2022/02/02 02:28:40;;;;;;;;;;;;;;;;;;;;;
2022/02/02 02:31:01;;;;;;;4.20;3.80;;;4.40;99.90;;;;;;5016070;28;20310;-61
2022/02/02 02:33:57;;;;;;;11.03;4.67;;;4.30;99.90;;;;;;5018057;28;20439;-60
2022/02/02 02:58:10;;;;;;;7.00;4.00;;;4.40;99.90;;;;;;5019372;28;20529;-60
2022/02/02 03:00:53;;;;;;;8.53;3.70;;;4.40;99.90;;;;;;5020693;28;20511;-60
2022/02/02 03:30:23;;;;;;;9.47;3.90;;;4.50;99.90;;;;;;5025389;28;20469;-61
2022/02/02 03:57:23;;;;;;;7.10;3.83;;;4.80;99.90;;;;;;5024640;28;20469;-60
2022/02/02 04:07:51;;;;;;;7.90;3.10;;;4.80;99.90;;;;;;5023792;28;20946;-60
2022/02/02 04:10:17;;;;;;;4.97;2.47;;;4.70;99.90;;;;;;5021398;28;20529;-60
2022/02/02 04:13:05;;;;;;;6.37;2.80;;;4.70;99.90;;;;;;5023461;28;20423;-61
2022/02/02 04:59:06;;;;;;;;;;;;;;;;;;;;;
2022/02/02 05:06:56;;;;;;;8.90;3.37;;;4.80;99.90;;;;;;5019587;28;20450;-61
2022/02/02 05:09:33;;;;;;;9.00;3.30;;;4.80;99.90;;;;;;5020118;28;20426;-61
2022/02/02 05:49:00;;;;;;;16.93;3.60;;;4.90;99.90;;;;;;5029116;28;20507;-60
2022/02/02 05:52:07;;;;;;;8.53;4.47;;;4.90;99.90;;;;;;5027854;28;20179;-60
2022/02/02 05:54:14;;;;;;;10.77;3.67;;;4.80;99.90;;;;;;5018228;28;20442;-60
2022/02/02 05:56:45;;;;;;;14.67;4.23;;;4.80;99.90;;;;;;5018257;28;20485;-60
2022/02/02 05:59:11;;;;;;;19.83;4.00;;;4.80;99.90;;;;;;5025777;28;20237;-60
2022/02/02 06:01:43;;;;;;;15.37;3.43;;;4.80;99.90;;;;;;5026114;28;21261;-60
2022/02/02 06:04:10;;;;;;;10.60;3.63;;;4.80;99.90;;;;;;5022276;28;20453;-61
2022/02/02 06:06:39;;;;;;;9.03;3.50;;;4.80;99.90;;;;;;5022531;28;20489;-59
2022/02/02 06:09:05;;;;;;;9.23;2.63;;;4.80;99.90;;;;;;5023787;28;21006;-61
2022/02/02 06:11:33;;;;;;;11.40;3.60;;;4.80;99.90;;;;;;5025036;28;20434;-60
2022/02/02 06:13:59;;;;;;;7.27;3.17;;;4.80;99.90;;;;;;5024024;28;20530;-61
2022/02/02 06:16:27;;;;;;;14.53;3.00;;;4.80;99.90;;;;;;5024114;28;20446;-59
2022/02/02 06:18:55;;;;;;;8.97;3.53;;;4.90;99.90;;;;;;5021886;28;20966;-60
2022/02/02 06:21:34;;;;;;;11.90;3.80;;;4.90;99.90;;;;;;5029426;28;21044;-61
2022/02/02 06:24:10;;;;;;;13.07;3.40;;;4.80;99.90;;;;;;5026786;28;20474;-61
2022/02/02 06:26:38;;;;;;;8.07;3.10;;;4.90;99.90;;;;;;5020521;28;20456;-61
2022/02/02 06:29:14;;;;;;;10.53;3.23;;;4.90;99.90;;;;;;5034730;28;20468;-61
2022/02/02 06:31:41;;;;;;;12.37;3.40;;;4.90;99.90;;;;;;5022672;28;20430;-61
2022/02/02 06:34:12;;;;;;;13.80;3.30;;;4.90;99.90;;;;;;5025964;28;20461;-60
2022/02/02 06:36:40;;;;;;;17.80;3.60;;;4.90;99.90;;;;;;5033912;28;20503;-62
2022/02/02 06:39:08;;;;;;;6.20;2.73;;;4.90;99.90;;;;;;5021289;28;20475;-60
2022/02/02 06:41:35;;;;;;;13.20;3.43;;;4.90;99.90;;;;;;5027668;28;20461;-59
2022/02/02 06:44:01;;;;;;;11.50;2.77;;;4.90;99.90;;;;;;5027080;28;20439;-60
2022/02/02 06:46:33;;;;;;;7.13;3.37;;;4.90;99.90;;;;;;5022683;28;20487;-61
2022/02/02 06:49:00;;;;;;;12.13;3.73;;;4.90;99.90;;;;;;5025859;28;20418;-60
2022/02/02 06:51:34;;;;;;;15.87;3.73;;;4.90;99.90;;;;;;5026944;28;20443;-61
2022/02/02 06:54:26;;;;;;;22.50;3.53;;;4.80;99.90;;;;;;5030496;28;20446;-61
2022/02/02 06:57:02;;;;;;;10.87;2.97;;;4.80;99.90;;;;;;5029453;28;22298;-61
2022/02/02 06:59:58;;;;;;;13.43;3.47;;;4.80;99.90;;;;;;5030674;28;20429;-60
2022/02/02 07:02:50;;;;;;;9.20;3.67;;;4.90;99.90;;;;;;5039860;28;20453;-60
2022/02/02 07:13:35;;;;;;;13.07;3.63;;;4.80;99.90;;;;;;5022740;28;20840;-61
2022/02/02 07:24:30;;;;;;;;;;;;;;;;;;;;;
2022/02/02 07:29:07;;;;;;;16.20;3.47;;;4.90;99.90;;;;;;5029794;28;21954;-59
2022/02/02 07:35:05;;;;;;;13.80;3.17;;;5.00;99.90;;;;;;5027122;28;20484;-60
2022/02/02 07:37:36;;;;;;;9.87;3.17;;;5.00;99.90;;;;;;5023167;28;20477;-60
2022/02/02 07:40:05;;;;;;;16.30;3.37;;;5.00;99.90;;;;;;5027793;28;20975;-59
2022/02/02 07:42:32;;;;;;;19.03;3.50;;;5.10;99.90;;;;;;5020692;28;20773;-60
2022/02/02 07:45:09;;;;;;;11.47;3.63;;;5.10;99.90;;;;;;5028091;28;20429;-60
2022/02/02 07:47:42;;;;;;;10.40;3.33;;;5.20;99.90;;;;;;5039247;28;20522;-60
2022/02/02 07:50:10;;;;;;;14.63;3.70;;;5.30;99.90;;;;;;5029337;28;20458;-64
2022/02/02 07:52:36;;;;;;;9.60;3.33;;;5.30;99.90;;;;;;5035229;28;21045;-61
2022/02/02 07:55:04;;;;;;;8.27;2.80;;;5.40;99.90;;;;;;5029137;28;20553;-61
2022/02/02 08:01:14;;;;;;;8.50;2.77;;;5.30;99.90;;;;;;5031593;28;20500;-60
2022/02/02 08:03:43;;;;;;;13.23;3.50;;;5.30;99.90;;;;;;5024415;28;20790;-62
2022/02/02 08:06:10;;;;;;;8.37;3.60;;;5.30;99.90;;;;;;5029886;28;20465;-60
2022/02/02 08:08:39;;;;;;;9.57;3.80;;;5.30;99.90;;;;;;5030103;28;20437;-62
2022/02/02 08:11:10;;;;;;;13.43;3.20;;;5.30;99.90;;;;;;5028843;28;20615;-60
2022/02/02 08:13:57;;;;;;;11.53;3.63;;;5.20;99.90;;;;;;5032581;28;20804;-58
2022/02/02 08:16:23;;;;;;;8.67;3.60;;;5.20;99.90;;;;;;5022150;28;20430;-59
2022/02/02 08:18:51;;;;;;;13.97;4.00;;;5.20;99.90;;;;;;5023828;28;20456;-60
2022/02/02 08:21:17;;;;;;;17.53;4.20;;;5.20;99.90;;;;;;5017005;28;20465;-60
2022/02/02 08:23:44;;;;;;;12.90;3.90;;;5.20;99.90;;;;;;5023655;28;20437;-60
2022/02/02 08:26:14;;;;;;;8.73;3.63;;;5.20;99.90;;;;;;5016935;28;20528;-62
2022/02/02 08:28:41;;;;;;;8.53;3.53;;;5.10;99.90;;;;;;5023349;28;20435;-60
2022/02/02 08:31:07;;;;;;;7.37;3.50;;;5.10;99.90;;;;;;5026181;28;21307;-59
2022/02/02 08:33:46;;;;;;;10.00;3.20;;;5.00;99.90;;;;;;5024616;28;20959;-60
2022/02/02 08:36:15;;;;;;;6.17;2.93;;;5.00;99.90;;;;;;5030125;28;20521;-60
2022/02/02 08:41:29;;;;;;;6.80;2.63;;;4.90;99.90;;;;;;5025233;28;20458;-54
2022/02/02 08:43:58;;;;;;;5.97;3.30;;;4.90;99.90;;;;;;5022718;28;20456;-56
2022/02/02 08:46:30;;;;;;;5.83;2.80;;;4.80;99.90;;;;;;5019000;28;20445;-54
2022/02/02 08:48:57;;;;;;;2.87;2.60;;;4.80;99.90;;;;;;5005925;28;20451;-55
2022/02/02 08:51:27;;;;;;;5.50;3.00;;;4.80;99.90;;;;;;5002027;28;20452;-55
2022/02/02 08:59:23;;;;;;;6.10;2.97;;;4.90;99.90;;;;;;5003321;28;20573;-56
2022/02/02 09:01:51;;;;;;;9.63;3.10;;;4.90;99.90;;;;;;5006872;28;21047;-53
2022/02/02 09:07:01;;;;;;;8.07;2.80;;;4.90;99.90;;;;;;5005710;28;20454;-52
2022/02/02 09:25:40;;;;;;;9.33;3.27;;;5.20;99.90;;;;;;5002576;28;20438;-55
2022/02/02 09:36:13;;;;;;;16.23;3.70;;;5.50;99.90;;;;;;4998235;28;20454;-58
2022/02/02 09:38:39;;;;;;;12.53;4.10;;;5.60;99.90;;;;;;4999307;28;20467;-57
2022/02/02 09:43:33;;;;;;;9.53;3.13;;;5.60;99.90;;;;;;5001852;28;20184;-56
2022/02/02 09:46:08;;;;;;;12.00;3.60;;;5.70;99.90;;;;;;5006288;28;20434;-57
2022/02/02 09:48:59;;;;;;;13.23;3.77;;;5.70;99.90;;;;;;4991285;28;20525;-55
2022/02/02 09:51:36;;;;;;;7.70;3.93;;;5.70;99.90;;;;;;5006001;28;20455;-56
2022/02/02 09:59:53;;;;;;;10.90;3.10;;;5.70;99.90;;;;;;5006875;28;20460;-56
2022/02/02 10:02:48;;;;;;;11.67;2.93;;;5.80;99.90;;;;;;5011188;28;20508;-56
2022/02/02 10:13:17;;;;;;;9.30;3.90;;;5.90;99.90;;;;;;5004096;28;20424;-56
2022/02/02 10:15:43;;;;;;;10.57;3.90;;;5.90;99.90;;;;;;5005511;28;20870;-57
2022/02/02 10:18:19;;;;;;;13.47;4.73;;;5.90;99.90;;;;;;5015097;28;20438;-58
2022/02/02 10:20:48;;;;;;;10.60;3.97;;;6.00;99.90;;;;;;5013649;28;20462;-55
2022/02/02 10:23:28;;;;;;;16.27;4.47;;;6.00;99.90;;;;;;5020785;28;20411;-56
2022/02/02 10:25:59;;;;;;;28.27;4.40;;;6.10;99.90;;;;;;5008982;28;20950;-57
2022/02/02 10:28:30;;;;;;;15.30;5.93;;;6.20;99.90;;;;;;5007395;28;20444;-55
2022/02/02 10:31:02;;;;;;;42.60;11.43;;;6.30;99.90;;;;;;5007604;28;20975;-56
2022/02/02 10:33:29;;;;;;;9.93;4.20;;;6.30;99.90;;;;;;5006999;28;20527;-56
2022/02/02 10:36:00;;;;;;;38.67;14.97;;;6.40;99.90;;;;;;5005990;28;20443;-55
2022/02/02 10:39:49;;;;;;;12.10;4.67;;;6.50;99.90;;;;;;5041242;28;20644;-56
2022/02/02 10:42:39;;;;;;;9.63;3.33;;;6.50;99.90;;;;;;5039738;28;20430;-54
2022/02/02 10:45:26;;;;;;;10.33;3.40;;;6.50;99.90;;;;;;5035977;28;21061;-56
2022/02/02 10:48:13;;;;;;;8.37;3.77;;;6.50;99.90;;;;;;5039641;28;20969;-56
2022/02/02 10:50:49;;;;;;;17.57;4.40;;;6.40;99.90;;;;;;5033535;28;20430;-54
2022/02/02 11:06:43;;;;;;;9.37;3.83;;;6.50;99.90;;;;;;5030847;28;20461;-55
2022/02/02 11:09:11;;;;;;;10.67;4.07;;;6.60;99.90;;;;;;5032862;28;20514;-56
2022/02/02 11:11:46;;;;;;;11.87;4.00;;;6.70;99.90;;;;;;5028569;28;20557;-55
2022/02/02 11:14:30;;;;;;;15.70;4.47;;;6.70;99.90;;;;;;5033952;28;20424;-56
2022/02/02 11:17:23;;;;;;;12.93;3.17;;;6.70;99.90;;;;;;5033140;28;20501;-58
2022/02/02 11:19:51;;;;;;;14.33;3.10;;;6.80;99.90;;;;;;5041057;28;20483;-58
2022/02/02 11:22:31;;;;;;;16.80;3.27;;;6.80;99.90;;;;;;5036924;28;20766;-57
2022/02/02 11:25:22;;;;;;;15.90;3.67;;;6.80;99.90;;;;;;5041438;28;20471;-57
2022/02/02 11:27:49;;;;;;;15.67;3.70;;;6.70;99.90;;;;;;5039649;28;20817;-57
2022/02/02 11:30:24;;;;;;;10.03;3.67;;;6.70;99.90;;;;;;5029347;28;20433;-57
2022/02/02 11:32:56;;;;;;;12.60;3.07;;;6.70;99.90;;;;;;5039865;28;20445;-57
2022/02/02 11:35:40;;;;;;;9.97;3.70;;;6.70;99.90;;;;;;5043065;28;20952;-57
2022/02/02 11:38:18;;;;;;;20.50;5.23;;;6.70;99.90;;;;;;5032653;28;20461;-57
2022/02/02 11:43:51;;;;;;;9.80;3.43;;;6.70;99.90;;;;;;5035020;28;20432;-57
2022/02/02 11:46:39;;;;;;;9.20;3.50;;;6.70;99.90;;;;;;5032606;28;22246;-56
2022/02/02 11:49:13;;;;;;;15.93;3.13;;;6.60;99.90;;;;;;5031343;28;20881;-57
2022/02/02 11:52:28;;;;;;;9.13;3.67;;;6.60;99.90;;;;;;5021263;28;20444;-57
2022/02/02 11:54:55;;;;;;;9.60;3.07;;;6.50;99.90;;;;;;5024384;28;20435;-56
2022/02/02 11:57:26;;;;;;;24.37;4.63;;;6.50;99.90;;;;;;5020916;28;20438;-57
2022/02/02 12:00:00;;;;;;;13.60;4.00;;;6.40;99.90;;;;;;5019390;28;20428;-56
2022/02/02 12:02:51;;;;;;;10.20;3.17;;;6.50;99.90;;;;;;5022396;28;20518;-57
2022/02/02 12:44:36;;;;;;;8.83;3.30;;;7.50;99.90;;;;;;5028282;28;20864;-56
2022/02/02 13:00:20;;;;;;;8.67;2.90;;;6.60;99.90;;;;;;5027252;28;20492;-56
2022/02/02 13:02:47;;;;;;;7.33;2.70;;;6.50;99.90;;;;;;5021509;28;20428;-57
2022/02/02 13:05:15;;;;;;;7.57;2.13;;;6.50;99.90;;;;;;5022878;28;20455;-57
2022/02/02 13:07:42;;;;;;;6.77;2.23;;;6.40;99.90;;;;;;5022713;28;21025;-56
2022/02/02 13:10:12;;;;;;;6.23;1.67;;;6.40;99.90;;;;;;5021535;28;20822;-58
2022/02/02 13:15:38;;;;;;;3.23;1.60;;;6.30;99.90;;;;;;5020668;28;21009;-57
2022/02/02 13:23:51;;;;;;;2.60;1.70;;;6.20;99.90;;;;;;5024123;28;20431;-56
2022/02/02 13:31:41;;;;;;;3.80;2.00;;;6.10;99.90;;;;;;5016742;28;20528;-56
2022/02/02 13:34:16;;;;;;;3.93;1.97;;;6.20;99.90;;;;;;5017534;28;20962;-56
2022/02/02 13:53:05;;;;;;;5.03;1.43;;;6.20;99.90;;;;;;5014965;28;20424;-56
2022/02/02 13:55:43;;;;;;;3.97;1.30;;;6.20;99.90;;;;;;5014930;28;20420;-58
2022/02/02 13:58:31;;;;;;;1.60;1.50;;;6.10;99.90;;;;;;5017480;28;20562;-57
2022/02/02 14:01:08;;;;;;;1.80;1.23;;;6.10;99.90;;;;;;5018033;28;20980;-56
2022/02/02 14:09:23;;;;;;;1.20;1.10;;;6.00;99.90;;;;;;5017574;28;20512;-57
2022/02/02 14:31:12;;;;;;;1.43;1.33;;;5.80;99.90;;;;;;5019460;28;20504;-57
2022/02/02 14:33:43;;;;;;;2.77;1.40;;;5.70;99.90;;;;;;5020124;28;20473;-56
2022/02/02 14:36:11;;;;;;;6.83;1.43;;;5.70;99.90;;;;;;5018710;28;20430;-56
2022/02/02 14:38:52;;;;;;;2.13;1.60;;;5.70;99.90;;;;;;5018706;28;20844;-56
2022/02/02 14:47:13;;;;;;;1.60;1.50;;;5.70;99.90;;;;;;4983257;28;20432;-58
2022/02/02 14:52:08;;;;;;;3.13;1.93;;;5.70;99.90;;;;;;4981318;28;20459;-58
2022/02/02 14:55:25;;;;;;;11.50;5.13;;;5.80;99.90;;;;;;4990102;28;20462;-58
2022/02/02 15:27:25;;;;;;;1.90;1.70;;;5.70;99.90;;;;;;4987019;28;20968;-62
2022/02/02 15:32:16;;;;;;;1.80;1.70;;;5.60;99.90;;;;;;4993038;28;20444;-60
2022/02/02 15:34:48;;;;;;;2.20;2.00;;;5.60;99.90;;;;;;4991636;28;20237;-61
2022/02/02 15:37:39;;;;;;;7.20;2.60;;;5.60;99.90;;;;;;4985405;28;20539;-61
2022/02/02 15:40:12;;;;;;;2.50;2.10;;;5.60;99.90;;;;;;4989806;28;20455;-60
2022/02/02 15:58:32;;;;;;;4.40;1.93;;;5.50;99.90;;;;;;4983693;28;20554;-60
2022/02/02 16:03:37;;;;;;;6.67;1.60;;;5.50;99.90;;;;;;4982880;28;20429;-60
2022/02/02 16:06:20;;;;;;;3.87;3.20;;;5.50;99.90;;;;;;4991245;28;20181;-61
2022/02/02 16:08:49;;;;;;;4.47;2.70;;;5.50;99.90;;;;;;4986707;28;21166;-60
2022/02/02 16:11:24;;;;;;;3.30;2.63;;;5.50;99.90;;;;;;4987178;28;20483;-60
2022/02/02 16:13:54;;;;;;;5.23;3.23;;;5.50;99.90;;;;;;4988619;28;20427;-62
2022/02/02 16:18:55;;;;;;;3.73;2.63;;;5.50;99.90;;;;;;4985635;28;20467;-57
2022/02/02 16:38:03;;;;;;;3.43;3.07;;;5.50;99.90;;;;;;4989365;28;20451;-61
2022/02/02 16:40:34;;;;;;;5.50;4.57;;;5.50;99.90;;;;;;4989324;28;20432;-60
2022/02/02 16:45:33;;;;;;;3.30;2.50;;;5.50;99.90;;;;;;4985181;28;20491;-57
2022/02/02 16:47:59;;;;;;;4.50;3.13;;;5.50;99.90;;;;;;4983528;28;20524;-60
2022/02/02 16:50:30;;;;;;;3.03;2.40;;;5.50;99.90;;;;;;4987450;28;20431;-60
2022/02/02 16:53:00;;;;;;;5.70;3.70;;;5.50;99.90;;;;;;4983439;28;20463;-61
2022/02/02 16:55:36;;;;;;;4.30;3.37;;;5.50;99.90;;;;;;4975467;28;20447;-58
2022/02/02 17:30:13;;;;;;;5.30;4.30;;;5.40;99.90;;;;;;4980251;28;20177;-60
2022/02/02 17:32:48;;;;;;;4.83;4.33;;;5.40;99.90;;;;;;4980582;28;20522;-60
2022/02/02 17:35:27;;;;;;;6.50;3.80;;;5.40;99.90;;;;;;4981174;28;20436;-58
2022/02/02 17:40:37;;;;;;;4.63;2.97;;;5.40;99.90;;;;;;4983105;28;20486;-60
2022/02/02 17:46:03;;;;;;;;;;;;;;;;;;;;;
2022/02/02 18:20:37;;;;;;;4.67;3.97;;;5.30;99.90;;;;;;4977859;28;20635;-61
2022/02/02 18:23:17;;;;;;;3.77;3.27;;;5.30;99.90;;;;;;4984214;28;22072;-59
2022/02/02 18:35:37;;;;;;;5.90;4.37;;;5.20;99.90;;;;;;4979589;28;20440;-60
2022/02/02 18:46:27;;;;;;;9.83;5.03;;;5.20;99.90;;;;;;4978980;28;20475;-59
2022/02/02 18:49:02;;;;;;;10.73;5.60;;;5.20;99.90;;;;;;4975527;28;20857;-58
2022/02/02 18:51:59;;;;;;;7.57;5.30;;;5.20;99.90;;;;;;4980709;28;20455;-60
2022/02/02 18:56:59;;;;;;;5.23;4.73;;;5.20;99.90;;;;;;4983467;28;20424;-60
2022/02/02 19:37:13;;;;;;;9.17;7.90;;;5.10;99.90;;;;;;4985991;28;20458;-60
2022/02/02 20:06:35;;;;;;;11.73;8.10;;;5.10;99.90;;;;;;4981522;28;21085;-61
2022/02/02 20:11:34;;;;;;;10.13;7.10;;;5.10;99.90;;;;;;4977162;28;20457;-60
2022/02/02 20:14:00;;;;;;;12.47;7.67;;;5.00;99.90;;;;;;4979811;28;20465;-60
2022/02/02 20:16:26;;;;;;;10.83;7.30;;;5.00;99.90;;;;;;4980297;28;20574;-60
2022/02/02 20:18:56;;;;;;;9.73;7.23;;;5.00;99.90;;;;;;4986938;28;20200;-60
2022/02/02 20:21:24;;;;;;;8.57;6.53;;;5.00;99.90;;;;;;4983183;28;20473;-61
2022/02/02 20:23:51;;;;;;;7.33;5.87;;;5.10;99.90;;;;;;4979984;28;20432;-60
2022/02/02 20:26:21;;;;;;;9.73;6.53;;;5.10;99.90;;;;;;4983087;28;20427;-60
2022/02/02 20:28:47;;;;;;;10.00;6.63;;;5.10;99.90;;;;;;4980009;28;20452;-60
2022/02/02 20:31:14;;;;;;;7.90;5.97;;;5.10;99.90;;;;;;4984667;28;20936;-59
2022/02/02 20:33:40;;;;;;;8.87;5.73;;;5.10;99.90;;;;;;5002335;28;20280;-61
2022/02/02 20:36:06;;;;;;;8.23;5.97;;;5.10;99.90;;;;;;4984352;28;20594;-62
2022/02/02 20:38:32;;;;;;;8.13;6.30;;;5.10;99.90;;;;;;4980537;28;20197;-60
2022/02/02 20:40:58;;;;;;;12.37;8.50;;;5.10;99.90;;;;;;5014430;23;20486;-59
2022/02/02 20:43:35;;;;;;;11.03;7.03;;;5.10;99.90;;;;;;5002030;28;20538;-56
2022/02/02 21:03:14;;;;;;;8.93;5.37;;;5.00;99.90;;;;;;4995101;28;21228;-58
2022/02/02 21:08:45;;;;;;;7.27;5.40;;;5.10;99.90;;;;;;5001682;28;21184;-57
2022/02/02 21:10:42;;;;;;;8.23;5.87;;;5.00;99.90;;;;;;4996615;28;20436;-55
2022/02/02 21:15:52;;;;;;;6.37;5.10;;;5.00;99.90;;;;;;5003993;28;20829;-58
2022/02/02 21:18:22;;;;;;;9.30;5.97;;;5.00;99.90;;;;;;5004028;28;20459;-56
2022/02/02 21:21:01;;;;;;;14.27;7.90;;;5.00;99.90;;;;;;5001711;28;20174;-56
2022/02/02 21:28:30;;;;;;;13.17;7.00;;;5.00;99.90;;;;;;5015019;28;20431;-59
2022/02/02 21:30:56;;;;;;;11.97;7.70;;;5.00;99.90;;;;;;5016106;28;20455;-57
2022/02/02 21:33:23;;;;;;;13.20;8.17;;;5.00;99.90;;;;;;5019602;28;20772;-59
2022/02/02 21:35:50;;;;;;;12.10;7.83;;;5.00;99.90;;;;;;5019337;28;20435;-58
2022/02/02 21:38:21;;;;;;;11.17;6.93;;;5.00;99.90;;;;;;5009523;28;20459;-57
2022/02/02 21:40:52;;;;;;;10.03;6.80;;;5.00;99.90;;;;;;5018669;28;20427;-58
2022/02/02 21:43:18;;;;;;;9.00;6.10;;;5.00;99.90;;;;;;5020149;28;20443;-56
2022/02/02 21:45:44;;;;;;;10.73;6.73;;;5.00;99.90;;;;;;5019582;28;20493;-57
2022/02/02 21:48:10;;;;;;;13.90;7.20;;;5.00;99.90;;;;;;5022936;28;20438;-56
2022/02/02 21:50:47;;;;;;;15.47;8.47;;;5.00;99.90;;;;;;5014872;28;20778;-55
2022/02/02 21:53:13;;;;;;;13.60;7.70;;;5.00;99.90;;;;;;5008858;28;20222;-55
2022/02/02 21:55:39;;;;;;;15.63;8.23;;;5.00;99.90;;;;;;5020772;28;20447;-57
2022/02/02 21:58:05;;;;;;;14.03;7.67;;;5.00;99.90;;;;;;5016832;28;20177;-55
2022/02/02 22:00:31;;;;;;;11.13;7.50;;;5.00;99.90;;;;;;5014381;28;20433;-56
2022/02/02 22:02:57;;;;;;;12.77;7.53;;;5.00;99.90;;;;;;5004724;28;20811;-55
2022/02/02 22:05:23;;;;;;;8.90;6.23;;;5.00;99.90;;;;;;5006195;28;20490;-57
2022/02/02 22:07:48;;;;;;;11.50;7.00;;;5.00;99.90;;;;;;5007679;28;20192;-55
2022/02/02 22:10:16;;;;;;;8.97;6.30;;;5.00;99.90;;;;;;5005226;28;20744;-56
2022/02/02 22:12:42;;;;;;;8.67;5.90;;;5.00;99.90;;;;;;5006610;28;20192;-56
2022/02/02 22:15:15;;;;;;;10.47;6.00;;;5.00;99.90;;;;;;5020054;28;20456;-57
2022/02/02 22:17:41;;;;;;;9.90;6.70;;;5.00;99.90;;;;;;5036530;28;20431;-58
2022/02/02 22:20:10;;;;;;;8.97;6.50;;;5.00;99.90;;;;;;5022681;28;20483;-57
2022/02/02 22:22:36;;;;;;;8.70;6.10;;;5.00;99.90;;;;;;5013048;28;20346;-55
2022/02/02 22:25:02;;;;;;;9.23;5.83;;;5.00;99.90;;;;;;5005745;28;20510;-55
2022/02/02 22:27:28;;;;;;;17.57;9.83;;;5.00;99.90;;;;;;5002499;28;20180;-57
2022/02/02 22:29:54;;;;;;;7.20;5.40;;;5.00;99.90;;;;;;5005305;28;21027;-55
2022/02/02 22:32:20;;;;;;;7.07;5.10;;;5.00;99.90;;;;;;5003990;28;20575;-56
2022/02/02 22:34:46;;;;;;;7.73;5.53;;;5.00;99.90;;;;;;5006430;28;20444;-54
2022/02/02 22:37:12;;;;;;;7.43;5.40;;;5.00;99.90;;;;;;5006912;28;20181;-56
2022/02/02 22:39:41;;;;;;;8.20;4.90;;;5.00;99.90;;;;;;5004238;28;20486;-55
2022/02/02 22:42:08;;;;;;;6.77;5.10;;;5.00;99.90;;;;;;5000411;28;20294;-57
2022/02/02 22:44:34;;;;;;;7.53;5.60;;;5.00;99.90;;;;;;5000625;28;20597;-55
2022/02/02 22:47:05;;;;;;;9.10;5.10;;;5.00;99.90;;;;;;5006180;28;20522;-55
2022/02/02 22:49:32;;;;;;;10.23;5.50;;;5.00;99.90;;;;;;5006251;28;20438;-55
2022/02/02 22:51:57;;;;;;;8.27;5.67;;;5.00;99.90;;;;;;5004135;28;20918;-54
2022/02/02 22:54:23;;;;;;;10.73;5.70;;;4.90;99.90;;;;;;5002262;28;20428;-56
2022/02/02 22:56:49;;;;;;;7.03;5.30;;;4.90;99.90;;;;;;4998959;28;20184;-57
2022/02/02 22:59:14;;;;;;;7.70;5.70;;;4.90;99.90;;;;;;5005619;28;20208;-56
2022/02/02 23:01:41;;;;;;;8.30;5.20;;;4.90;99.90;;;;;;5003718;28;20205;-56
2022/02/02 23:04:07;;;;;;;7.53;5.57;;;4.90;99.90;;;;;;5004923;28;20565;-57
2022/02/02 23:06:32;;;;;;;7.00;5.10;;;4.90;99.90;;;;;;5003584;28;20493;-57
2022/02/02 23:09:00;;;;;;;6.33;5.10;;;4.90;99.90;;;;;;5005255;28;20614;-54
2022/02/02 23:11:26;;;;;;;6.57;5.07;;;4.90;99.90;;;;;;4998724;28;20231;-56
2022/02/02 23:13:54;;;;;;;6.50;5.20;;;4.90;99.90;;;;;;4999487;28;20427;-57
2022/02/02 23:16:32;;;;;;;7.47;5.50;;;4.90;99.90;;;;;;5003845;28;20441;-57
2022/02/02 23:18:58;;;;;;;7.40;4.70;;;4.90;99.90;;;;;;5005748;28;20452;-55
2022/02/02 23:21:25;;;;;;;6.63;5.07;;;4.90;99.90;;;;;;5001915;28;20466;-54
2022/02/02 23:24:00;;;;;;;6.10;4.53;;;4.90;99.90;;;;;;5006550;28;20205;-55
2022/02/02 23:26:26;;;;;;;4.50;4.00;;;4.80;99.90;;;;;;5003703;28;20489;-56
2022/02/02 23:28:55;;;;;;;5.23;4.37;;;4.90;99.90;;;;;;4998364;28;20439;-56
2022/02/02 23:31:21;;;;;;;8.60;5.70;;;4.80;99.90;;;;;;5001560;28;20992;-56
2022/02/02 23:33:47;;;;;;;10.80;5.47;;;4.80;99.90;;;;;;5005351;28;20936;-54
2022/02/02 23:36:13;;;;;;;9.87;6.10;;;4.80;99.90;;;;;;5002090;28;20435;-56
2022/02/02 23:38:40;;;;;;;8.83;5.60;;;4.80;99.90;;;;;;4996503;28;20541;-53
2022/02/02 23:43:51;;;;;;;10.07;5.87;;;4.70;99.90;;;;;;5004430;28;21070;-55
2022/02/02 23:46:27;;;;;;;10.23;6.60;;;4.70;99.90;;;;;;5002763;28;20503;-56
2022/02/02 23:49:04;;;;;;;12.13;6.13;;;4.70;99.90;;;;;;4998287;28;20432;-57
2022/02/02 23:51:35;;;;;;;9.13;6.80;;;4.70;99.90;;;;;;5014111;28;20724;-56
2022/02/02 23:54:04;;;;;;;10.53;6.93;;;4.70;99.90;;;;;;5020640;28;20474;-54
2022/02/02 23:59:09;;;;;;;10.80;6.87;;;4.60;99.90;;;;;;5002773;28;20872;-54
